Time;durP1;ratioP1;P1;durP2;ratioP2;P2;SDS_P1;SDS_P2;PMS_P1;PMS_P2;Temp;Humidity;BMP_temperature;BMP_pressure;BME280_temperature;BME280_humidity;BME280_pressure;Samples;Min_cycle;Max_cycle;Signal;HPM_P1;HPM_P2
2022/11/12 00:00:53;;;;;;;20.40;12.13;;;;;;;-143.48;87.31;80686.19;5037827;28;20096;-71
2022/11/12 00:03:19;;;;;;;19.42;11.45;;;;;;;-143.48;86.69;80684.22;5038194;28;20025;-71
2022/11/12 00:05:45;;;;;;;19.90;11.63;;;;;;;-143.48;86.96;80692.16;5037744;28;20029;-70
2022/11/12 00:08:11;;;;;;;20.40;11.70;;;;;;;-143.48;87.62;80702.06;5036824;28;20361;-71
2022/11/12 00:10:36;;;;;;;24.23;11.95;;;;;;;-143.48;87.78;80708.03;5039184;28;20020;-70
2022/11/12 00:13:01;;;;;;;19.02;11.55;;;;;;;-143.48;88.03;80706.03;5035196;28;20460;-70
2022/11/12 00:15:27;;;;;;;16.92;10.98;;;;;;;-143.48;88.02;80704.06;5036260;28;20048;-72
2022/11/12 00:17:52;;;;;;;17.95;11.40;;;;;;;-143.48;87.95;80708.03;5034621;28;20044;-72
2022/11/12 00:20:18;;;;;;;19.92;11.70;;;;;;;-143.48;88.30;80737.78;5035458;28;20077;-70
2022/11/12 00:22:43;;;;;;;20.30;11.73;;;;;;;-143.48;88.88;80729.84;5034581;28;20057;-70
2022/11/12 00:25:08;;;;;;;19.83;11.70;;;;;;;-143.48;88.71;80733.81;5036271;28;20021;-70
2022/11/12 00:27:34;;;;;;;22.30;12.65;;;;;;;-143.48;89.76;80733.81;5035672;28;20023;-70
2022/11/12 00:30:00;;;;;;;21.42;12.30;;;;;;;-143.48;89.69;80717.94;5034842;28;20045;-70
2022/11/12 00:32:26;;;;;;;19.40;11.95;;;;;;;-143.48;89.05;80717.94;5034696;28;20416;-71
2022/11/12 00:34:51;;;;;;;19.35;11.88;;;;;;;-143.48;88.82;80725.88;5034621;28;20325;-71
2022/11/12 00:37:17;;;;;;;19.48;11.80;;;;;;;-143.48;88.95;80729.84;5034755;28;20025;-71
2022/11/12 00:39:43;;;;;;;19.30;11.25;;;;;;;-143.48;88.99;80733.81;5034521;28;20447;-70
2022/11/12 00:42:08;;;;;;;19.05;12.00;;;;;;;-143.48;88.55;80735.81;5034359;28;20049;-70
2022/11/12 00:44:33;;;;;;;23.73;13.00;;;;;;;-143.48;88.79;80727.88;5033840;28;20044;-73
2022/11/12 00:46:59;;;;;;;24.42;12.60;;;;;;;-143.48;88.86;80743.75;5034656;28;20479;-71
2022/11/12 00:49:24;;;;;;;18.92;12.05;;;;;;;-143.48;89.41;80741.75;5034538;28;20014;-70
2022/11/12 00:51:50;;;;;;;26.50;12.50;;;;;;;-143.48;89.93;80739.78;5035715;28;20104;-71
2022/11/12 00:54:15;;;;;;;17.15;11.43;;;;;;;-143.48;89.57;80741.75;5034379;28;20103;-71
2022/11/12 00:56:40;;;;;;;25.08;13.82;;;;;;;-143.48;89.78;80743.75;5035713;28;20197;-71
2022/11/12 00:59:06;;;;;;;22.05;12.20;;;;;;;-143.48;90.01;80727.88;5035857;28;20029;-72
2022/11/12 01:01:31;;;;;;;19.60;12.55;;;;;;;-143.48;89.48;80727.88;5035793;28;20379;-71
2022/11/12 01:03:57;;;;;;;22.70;13.25;;;;;;;-143.48;89.36;80717.94;5034203;28;20025;-71
2022/11/12 01:06:24;;;;;;;20.55;12.45;;;;;;;-143.48;89.42;80729.84;5035224;28;20021;-70
2022/11/12 01:08:50;;;;;;;19.48;12.10;;;;;;;-143.48;89.01;80733.81;5035604;28;20108;-71
2022/11/12 01:11:17;;;;;;;20.60;12.30;;;;;;;-143.48;89.05;80727.88;5035300;28;20484;-72
2022/11/12 01:13:45;;;;;;;20.10;12.45;;;;;;;-143.48;89.38;80713.97;5034129;28;20029;-71
2022/11/12 01:16:16;;;;;;;19.52;11.77;;;;;;;-143.48;89.00;80712.00;5034084;28;20108;-72
2022/11/12 01:18:42;;;;;;;22.48;13.38;;;;;;;-143.48;88.82;80725.88;5035252;28;20053;-72
2022/11/12 01:21:09;;;;;;;21.98;12.55;;;;;;;-143.48;88.95;80739.78;5035217;28;20100;-72
2022/11/12 01:23:36;;;;;;;25.23;13.45;;;;;;;-143.48;89.34;80751.69;5034974;28;20136;-72
2022/11/12 01:26:10;;;;;;;22.90;12.90;;;;;;;-143.48;90.04;80751.69;5034753;28;20030;-72
2022/11/12 01:28:36;;;;;;;25.00;12.93;;;;;;;-143.48;89.70;80741.75;5035028;28;20117;-71
2022/11/12 01:31:10;;;;;;;22.75;13.05;;;;;;;-143.48;89.85;80737.78;5035073;28;20021;-71
2022/11/12 01:33:36;;;;;;;22.23;12.50;;;;;;;-143.48;89.60;80735.81;5034246;28;20037;-69
2022/11/12 01:36:01;;;;;;;21.67;12.48;;;;;;;-143.48;89.31;80739.78;5035006;28;20417;-70
2022/11/12 01:38:26;;;;;;;23.65;13.35;;;;;;;-143.48;89.63;80745.72;5033664;28;20087;-71
2022/11/12 01:40:51;;;;;;;20.63;12.68;;;;;;;-143.48;89.34;80761.59;5033581;28;20137;-72
2022/11/12 01:43:17;;;;;;;23.15;12.85;;;;;;;-143.48;89.57;80755.66;5034838;28;20036;-72
2022/11/12 01:45:48;;;;;;;20.77;12.23;;;;;;;-143.48;88.94;80773.50;5033275;28;20030;-71
2022/11/12 01:48:29;;;;;;;20.92;12.02;;;;;;;-143.48;88.57;80781.44;5034536;28;20033;-72
2022/11/12 01:50:55;;;;;;;19.52;12.52;;;;;;;-143.48;88.97;80773.50;5034562;28;20017;-71
2022/11/12 01:53:24;;;;;;;22.90;13.23;;;;;;;-143.48;89.48;80755.66;5034707;28;20479;-71
2022/11/12 01:55:50;;;;;;;21.42;13.48;;;;;;;-143.48;89.67;80737.78;5033064;28;20087;-71
2022/11/12 01:58:18;;;;;;;25.42;13.32;;;;;;;-143.48;89.34;80719.94;5033185;28;20025;-70
2022/11/12 02:00:44;;;;;;;21.67;13.73;;;;;;;-143.48;88.82;80694.13;5034360;28;20029;-71
2022/11/12 02:03:17;;;;;;;17.98;12.32;;;;;;;-143.48;88.83;80684.22;5034415;28;20557;-71
2022/11/12 02:05:45;;;;;;;23.92;13.48;;;;;;;-143.48;88.81;80690.16;5033157;28;20112;-71
2022/11/12 02:08:11;;;;;;;20.52;13.32;;;;;;;-143.48;88.64;80702.06;5033143;28;20029;-70
2022/11/12 02:10:40;;;;;;;23.10;12.85;;;;;;;-143.48;88.50;80664.38;5034128;28;20530;-70
2022/11/12 02:15:51;;;;;;;20.98;12.52;;;;;;;-143.48;87.70;80668.34;5034397;28;20071;-70
2022/11/12 02:18:16;;;;;;;20.30;12.63;;;;;;;-143.48;87.56;80670.31;5035180;28;20377;-71
2022/11/12 02:20:41;;;;;;;21.45;12.73;;;;;;;-143.48;87.99;80662.38;5033003;28;20095;-70
2022/11/12 02:23:07;;;;;;;23.42;13.32;;;;;;;-143.48;87.58;80650.47;5033793;28;20357;-70
2022/11/12 02:25:34;;;;;;;17.80;11.90;;;;;;;-143.48;87.75;80648.50;5034050;28;20029;-70
2022/11/12 02:28:03;;;;;;;24.08;13.75;;;;;;;-143.48;87.84;80638.56;5034311;28;20021;-70
2022/11/12 02:30:41;;;;;;;23.10;13.68;;;;;;;-143.48;88.17;80634.59;5033985;28;20444;-70
2022/11/12 02:33:06;;;;;;;22.00;13.43;;;;;;;-143.48;87.71;80636.59;5033725;28;20033;-71
2022/11/12 02:35:32;;;;;;;23.58;13.80;;;;;;;-143.48;88.00;80624.69;5032751;28;20538;-70
2022/11/12 02:37:58;;;;;;;23.50;13.98;;;;;;;-143.48;87.73;80618.72;5033811;28;20030;-70
2022/11/12 02:40:23;;;;;;;22.05;13.60;;;;;;;-143.48;87.69;80616.75;5033629;28;20021;-70
2022/11/12 02:42:48;;;;;;;21.83;14.15;;;;;;;-143.48;87.69;80614.75;5033504;28;20508;-70
2022/11/12 02:45:15;;;;;;;27.35;15.07;;;;;;;-143.48;88.22;80610.78;5033335;28;20104;-70
2022/11/12 02:47:40;;;;;;;22.80;13.57;;;;;;;-143.48;88.27;80594.91;5032377;28;20029;-70
2022/11/12 02:50:06;;;;;;;23.25;14.63;;;;;;;-143.48;88.27;80585.00;5033764;28;20021;-71
2022/11/12 02:52:32;;;;;;;25.60;14.73;;;;;;;-143.48;88.40;80586.97;5032117;28;20041;-70
2022/11/12 02:54:57;;;;;;;27.10;13.73;;;;;;;-143.48;88.50;80569.13;5033582;28;20033;-70
2022/11/12 02:57:22;;;;;;;23.70;14.15;;;;;;;-143.48;87.94;80583.00;5033603;28;20022;-71
2022/11/12 02:59:48;;;;;;;20.95;13.13;;;;;;;-143.48;88.06;80579.03;5033690;28;20052;-70
2022/11/12 03:02:13;;;;;;;21.20;13.60;;;;;;;-143.48;87.90;80577.06;5032497;28;20025;-70
2022/11/12 03:04:38;;;;;;;24.08;14.07;;;;;;;-143.48;87.84;80586.97;5032412;28;20033;-70
2022/11/12 03:07:04;;;;;;;21.70;14.13;;;;;;;-143.48;88.09;80594.91;5033725;28;20053;-70
2022/11/12 03:09:29;;;;;;;26.73;14.93;;;;;;;-143.48;88.45;80592.94;5032173;28;20022;-71
2022/11/12 03:11:54;;;;;;;23.30;15.48;;;;;;;-143.48;88.63;80602.84;5033543;28;20116;-70
2022/11/12 03:14:20;;;;;;;25.38;14.88;;;;;;;-143.48;88.80;80612.78;5033497;28;20350;-69
2022/11/12 03:16:45;;;;;;;25.85;14.98;;;;;;;-143.48;89.53;80583.00;5032187;28;20029;-70
2022/11/12 03:19:10;;;;;;;23.77;15.40;;;;;;;-143.48;88.98;80585.00;5032092;28;20021;-70
2022/11/12 03:21:36;;;;;;;25.13;15.45;;;;;;;-143.48;89.05;80594.91;5032085;28;20029;-70
2022/11/12 03:24:01;;;;;;;28.42;16.42;;;;;;;-143.48;89.59;80586.97;5033534;28;20492;-71
2022/11/12 03:26:26;;;;;;;26.38;15.32;;;;;;;-143.48;89.62;80616.75;5033527;28;20025;-70
2022/11/12 03:28:52;;;;;;;23.95;15.48;;;;;;;-143.48;89.59;80606.81;5032162;28;20032;-70
2022/11/12 03:31:17;;;;;;;24.73;15.60;;;;;;;-143.48;89.54;80596.91;5031993;28;20588;-70
2022/11/12 03:33:42;;;;;;;26.42;15.82;;;;;;;-143.48;89.20;80618.72;5033289;28;20036;-72
2022/11/12 03:36:08;;;;;;;26.00;15.70;;;;;;;-143.48;89.89;80616.75;5031813;28;20373;-70
2022/11/12 03:38:33;;;;;;;26.05;16.50;;;;;;;-143.48;89.46;80642.53;5033266;28;20021;-71
2022/11/12 03:40:58;;;;;;;27.88;16.45;;;;;;;-143.48;90.89;80634.59;5032752;28;20040;-71
2022/11/12 03:43:24;;;;;;;32.50;17.27;;;;;;;-143.48;90.76;80632.63;5032577;28;20029;-71
2022/11/12 03:45:49;;;;;;;30.92;17.17;;;;;;;-143.48;91.18;80636.59;5031858;28;20025;-70
2022/11/12 03:48:14;;;;;;;32.97;17.83;;;;;;;-143.48;91.31;80632.63;5032787;28;20112;-70
2022/11/12 03:50:40;;;;;;;40.10;19.65;;;;;;;-143.48;91.72;80612.78;5032827;28;20021;-70
2022/11/12 03:53:05;;;;;;;43.58;19.23;;;;;;;-143.48;91.85;80604.84;5033129;28;20029;-71
2022/11/12 03:55:30;;;;;;;48.50;18.83;;;;;;;-143.48;91.98;80596.91;5031807;28;20025;-71
2022/11/12 03:57:56;;;;;;;46.92;19.17;;;;;;;-143.48;91.92;80594.91;5034210;28;20030;-71
2022/11/12 04:00:23;;;;;;;41.00;19.80;;;;;;;-143.48;92.16;80588.97;5035387;28;20021;-70
2022/11/12 04:02:49;;;;;;;48.78;20.42;;;;;;;-143.48;92.41;80575.06;5035566;28;20117;-70
2022/11/12 04:10:50;;;;;;;48.95;20.08;;;;;;;-143.48;92.11;80567.13;5036616;28;20550;-71
2022/11/12 04:13:28;;;;;;;39.97;19.63;;;;;;;-143.48;92.46;80573.09;5035293;28;20396;-70
2022/11/12 04:21:50;;;;;;;47.65;20.52;;;;;;;-143.48;91.72;80571.09;5037200;28;20035;-71
2022/11/12 04:27:00;;;;;;;33.70;18.05;;;;;;;-143.48;91.49;80618.72;5038410;28;20041;-71
2022/11/12 04:32:10;;;;;;;32.60;18.00;;;;;;;-143.48;91.02;80602.84;5052642;28;20102;-71
2022/11/12 04:34:35;;;;;;;28.95;17.75;;;;;;;-143.48;91.12;80598.88;5052220;28;20021;-70
2022/11/12 04:37:04;;;;;;;34.53;18.15;;;;;;;-143.48;90.80;80590.94;5053684;28;20034;-71
2022/11/12 04:39:30;;;;;;;29.95;17.17;;;;;;;-143.48;89.98;80598.88;5052920;28;20057;-71
2022/11/12 04:47:21;;;;;;;30.25;17.35;;;;;;;-143.48;90.25;80604.84;5053412;28;20036;-70
2022/11/12 04:49:46;;;;;;;27.15;17.65;;;;;;;-143.48;90.11;80596.91;5052248;28;20021;-70
2022/11/12 04:52:12;;;;;;;32.05;17.17;;;;;;;-143.48;90.07;80608.81;5053178;28;20033;-70
2022/11/12 04:54:37;;;;;;;29.13;17.45;;;;;;;-143.48;90.20;80618.72;5052418;28;20056;-72
2022/11/12 04:57:02;;;;;;;29.08;17.92;;;;;;;-143.48;90.47;80626.66;5057070;28;20105;-71
2022/11/12 04:59:28;;;;;;;30.65;18.63;;;;;;;-143.48;90.64;80610.78;5057123;28;20033;-75
2022/11/12 05:01:53;;;;;;;35.38;19.27;;;;;;;-143.48;90.33;80606.81;5057300;28;20025;-72
2022/11/12 05:04:18;;;;;;;33.95;19.20;;;;;;;-143.48;90.76;80585.00;5056219;28;20030;-70
2022/11/12 05:06:53;;;;;;;40.95;20.50;;;;;;;-143.48;90.56;80630.63;5056847;28;20025;-74
2022/11/12 05:09:24;;;;;;;42.05;21.00;;;;;;;-143.48;91.65;80642.53;5056633;28;20077;-72
2022/11/12 05:11:51;;;;;;;52.78;21.70;;;;;;;-143.48;92.05;80636.59;5055642;28;20020;-71
2022/11/12 05:14:16;;;;;;;56.22;22.08;;;;;;;-143.48;92.36;80624.69;5044445;28;20021;-70
2022/11/12 05:16:43;;;;;;;75.82;21.98;;;;;;;-143.48;92.00;80610.78;5040706;28;20040;-70
2022/11/12 05:19:08;;;;;;;82.60;22.58;;;;;;;-143.48;91.80;80614.75;5039787;28;20025;-70
2022/11/12 05:24:18;;;;;;;118.47;22.73;;;;;;;-143.48;91.81;80642.53;5038588;28;20428;-71
2022/11/12 05:26:43;;;;;;;94.07;22.30;;;;;;;-143.48;92.97;80660.41;5038406;28;20030;-70
2022/11/12 05:29:08;;;;;;;123.63;23.75;;;;;;;-143.48;93.10;80654.44;5036370;28;20029;-70
2022/11/12 05:31:34;;;;;;;138.38;25.58;;;;;;;-143.48;93.21;80666.34;5036864;28;20046;-71
2022/11/12 05:33:59;;;;;;;81.97;23.25;;;;;;;-143.48;93.58;80660.41;5036502;28;20510;-71
2022/11/12 05:36:25;;;;;;;137.20;24.30;;;;;;;-143.48;93.11;80656.44;5036151;28;20480;-70
2022/11/12 05:38:50;;;;;;;110.05;22.00;;;;;;;-143.48;93.28;80658.41;5034305;28;20029;-70
2022/11/12 05:41:16;;;;;;;198.23;24.25;;;;;;;-143.48;93.58;80666.34;5035452;28;20077;-71
2022/11/12 05:43:41;;;;;;;120.47;23.15;;;;;;;-143.48;93.91;80672.31;5033927;28;20037;-71
2022/11/12 05:46:07;;;;;;;138.35;24.50;;;;;;;-143.48;94.17;80660.41;5035362;28;20109;-70
2022/11/12 05:48:32;;;;;;;66.82;22.52;;;;;;;-143.48;94.21;80658.41;5033627;28;20452;-70
2022/11/12 05:50:57;;;;;;;106.28;23.42;;;;;;;-143.48;93.76;80660.41;5033821;28;20341;-71
2022/11/12 05:53:23;;;;;;;97.00;21.50;;;;;;;-143.48;93.50;80654.44;5034784;28;20029;-71
2022/11/12 05:55:48;;;;;;;55.65;19.63;;;;;;;-143.48;92.94;80674.28;5034905;28;20047;-71
2022/11/12 05:58:13;;;;;;;83.78;20.23;;;;;;;-143.48;93.18;80713.97;5034591;28;20025;-71
2022/11/12 06:00:38;;;;;;;60.00;19.80;;;;;;;-143.48;93.76;80717.94;5034768;28;20027;-70
2022/11/12 06:03:05;;;;;;;78.53;21.25;;;;;;;-143.48;93.74;80715.97;5034606;28;20083;-70
2022/11/12 06:05:31;;;;;;;46.83;19.35;;;;;;;-143.48;93.75;80706.03;5034360;28;20104;-71
2022/11/12 06:07:57;;;;;;;52.47;20.42;;;;;;;-143.48;93.40;80715.97;5034502;28;20104;-71
2022/11/12 06:10:22;;;;;;;43.17;18.70;;;;;;;-143.48;92.69;80713.97;5033140;28;20113;-71
2022/11/12 06:12:47;;;;;;;42.75;19.52;;;;;;;-143.48;92.90;80712.00;5034375;28;20029;-71
2022/11/12 06:15:13;;;;;;;36.33;18.83;;;;;;;-143.48;92.34;80706.03;5034485;28;20049;-71
2022/11/12 06:17:38;;;;;;;36.33;18.67;;;;;;;-143.48;92.49;80715.97;5034455;28;20078;-71
2022/11/12 06:20:04;;;;;;;31.73;18.17;;;;;;;-143.48;92.19;80715.97;5032438;28;20017;-73
2022/11/12 06:22:29;;;;;;;32.00;17.48;;;;;;;-143.48;92.14;80706.03;5033900;28;20075;-71
2022/11/12 06:24:54;;;;;;;48.97;18.52;;;;;;;-143.48;91.83;80727.88;5033143;28;20036;-71
2022/11/12 06:27:22;;;;;;;33.72;18.65;;;;;;;-143.48;91.99;80729.84;5034143;28;20036;-71
2022/11/12 06:29:48;;;;;;;29.75;18.02;;;;;;;-143.48;91.96;80725.88;5034036;28;20100;-71
2022/11/12 06:32:13;;;;;;;32.13;17.60;;;;;;;-143.48;91.51;80727.88;5037864;28;20507;-72
2022/11/12 06:34:38;;;;;;;35.15;17.95;;;;;;;-143.48;91.41;80733.81;5034326;28;20095;-71
2022/11/12 06:37:04;;;;;;;33.15;17.30;;;;;;;-143.48;91.59;80735.81;5034697;28;20029;-71
2022/11/12 06:39:29;;;;;;;28.83;17.25;;;;;;;-143.48;91.25;80749.69;5035155;28;20024;-72
2022/11/12 06:41:54;;;;;;;27.67;16.48;;;;;;;-143.48;91.05;80751.69;5034674;28;20069;-70
2022/11/12 06:44:19;;;;;;;29.45;17.15;;;;;;;-143.48;90.74;80747.72;5034078;28;20112;-72
2022/11/12 06:46:45;;;;;;;25.70;16.40;;;;;;;-143.48;91.05;80755.66;5034103;28;20032;-69
2022/11/12 06:49:10;;;;;;;25.98;16.60;;;;;;;-143.48;90.62;80757.63;5033619;28;20392;-72
2022/11/12 06:51:35;;;;;;;27.27;16.33;;;;;;;-143.48;90.43;80749.69;5031299;28;20033;-72
2022/11/12 06:54:01;;;;;;;26.08;15.65;;;;;;;-143.48;89.69;80767.56;5031506;28;20116;-72
2022/11/12 06:56:26;;;;;;;26.33;16.10;;;;;;;-143.48;89.99;80751.69;5031640;28;20029;-71
2022/11/12 06:58:51;;;;;;;22.85;15.23;;;;;;;-143.48;89.21;80759.63;5031806;28;20026;-72
2022/11/12 07:01:17;;;;;;;24.60;15.40;;;;;;;-143.48;88.84;80761.59;5033427;28;20384;-72
2022/11/12 07:03:43;;;;;;;25.08;15.95;;;;;;;-143.48;88.58;80755.66;5033384;28;20104;-71
2022/11/12 07:06:11;;;;;;;24.08;16.00;;;;;;;-143.48;88.66;80761.59;5033530;28;20435;-71
2022/11/12 07:08:37;;;;;;;23.73;15.88;;;;;;;-143.48;88.29;80777.47;5033311;28;20393;-71
2022/11/12 07:11:04;;;;;;;30.70;15.77;;;;;;;-143.48;88.38;80777.47;5032503;28;20036;-72
2022/11/12 07:13:31;;;;;;;22.98;14.90;;;;;;;-143.48;88.11;80755.66;5033442;28;20116;-70
2022/11/12 07:15:58;;;;;;;23.10;15.30;;;;;;;-143.48;87.52;80757.63;5033113;28;20017;-73
2022/11/12 07:18:23;;;;;;;24.23;15.73;;;;;;;-143.48;87.68;80749.69;5033182;28;20032;-70
2022/11/12 07:20:49;;;;;;;24.58;15.02;;;;;;;-143.48;87.42;80751.69;5034069;28;20447;-70
2022/11/12 07:23:14;;;;;;;24.10;15.10;;;;;;;-143.48;87.21;80755.66;5032945;28;20030;-71
2022/11/12 07:25:39;;;;;;;23.83;15.60;;;;;;;-143.48;87.16;80759.63;5033165;28;20369;-71
2022/11/12 07:28:04;;;;;;;28.55;16.75;;;;;;;-143.48;86.53;80757.63;5033135;28;20029;-71
2022/11/12 07:30:30;;;;;;;25.58;17.08;;;;;;;-143.48;86.53;80765.56;5034433;28;20116;-70
2022/11/12 07:32:57;;;;;;;30.05;16.70;;;;;;;-143.48;86.50;80765.56;5037662;28;20029;-70
2022/11/12 07:35:22;;;;;;;23.38;16.23;;;;;;;-143.48;86.06;80761.59;5036136;28;20090;-71
2022/11/12 07:37:47;;;;;;;26.52;16.05;;;;;;;-143.48;85.80;80767.56;5037274;28;20464;-70
2022/11/12 07:40:14;;;;;;;28.95;16.15;;;;;;;-143.48;86.07;80759.63;5035645;28;20068;-71
2022/11/12 07:42:39;;;;;;;23.52;14.55;;;;;;;-143.48;86.14;80751.69;5035375;28;20041;-71
2022/11/12 07:45:05;;;;;;;23.80;15.30;;;;;;;-143.48;85.83;80751.69;5036258;28;20136;-71
2022/11/12 07:47:30;;;;;;;24.33;15.27;;;;;;;-143.48;85.31;80755.66;5035429;28;20546;-71
2022/11/12 07:49:55;;;;;;;23.98;14.82;;;;;;;-143.48;85.36;80745.72;5039958;28;20448;-71
2022/11/12 07:52:21;;;;;;;22.42;14.18;;;;;;;-143.48;84.99;80739.78;5036226;28;20072;-70
2022/11/12 07:54:46;;;;;;;24.40;14.75;;;;;;;-143.48;84.88;80743.75;5036721;28;20072;-71
2022/11/12 07:57:12;;;;;;;22.02;14.55;;;;;;;-143.48;84.94;80743.75;5035364;28;20052;-73
2022/11/12 07:59:37;;;;;;;22.20;14.40;;;;;;;-143.48;85.28;80735.81;5035915;28;20168;-70
2022/11/12 08:02:02;;;;;;;22.02;14.38;;;;;;;-143.48;84.76;80733.81;5037465;28;20041;-70
2022/11/12 08:04:28;;;;;;;22.10;14.27;;;;;;;-143.48;84.78;80713.97;5036489;28;20025;-71
2022/11/12 08:06:53;;;;;;;21.70;13.75;;;;;;;-143.48;84.16;80708.03;5034982;28;20120;-70
2022/11/12 08:09:18;;;;;;;21.80;14.15;;;;;;;-143.48;84.15;80710.00;5036068;28;20061;-69
2022/11/12 08:11:43;;;;;;;23.20;14.25;;;;;;;-143.48;84.34;80700.09;5036175;28;20040;-71
2022/11/12 08:14:09;;;;;;;22.55;13.55;;;;;;;-143.48;84.29;80698.09;5034623;28;20461;-71
2022/11/12 08:16:34;;;;;;;22.95;13.80;;;;;;;-143.48;84.18;80698.09;5036724;28;20034;-73
2022/11/12 08:19:00;;;;;;;20.23;13.38;;;;;;;-143.48;84.26;80690.16;5036758;28;20056;-73
2022/11/12 08:21:25;;;;;;;20.05;12.55;;;;;;;-143.48;83.47;80680.25;5038725;28;20095;-71
2022/11/12 08:23:51;;;;;;;21.55;12.95;;;;;;;-143.48;83.09;80676.28;5034649;28;20025;-70
2022/11/12 08:26:18;;;;;;;19.23;12.80;;;;;;;-143.48;83.17;80672.31;5035105;28;20068;-70
2022/11/12 08:28:43;;;;;;;19.60;12.18;;;;;;;-143.48;82.23;80658.41;5036049;28;20078;-71
2022/11/12 08:31:17;;;;;;;20.98;12.23;;;;;;;-143.48;82.36;80654.44;5035481;28;20022;-71
2022/11/12 08:33:43;;;;;;;17.85;11.98;;;;;;;-143.48;81.68;80648.50;5036009;28;20494;-70
2022/11/12 08:36:11;;;;;;;18.15;11.90;;;;;;;-143.48;81.65;80642.53;5035942;28;20116;-70
2022/11/12 08:38:38;;;;;;;17.90;11.45;;;;;;;-143.48;80.83;80630.63;5034036;28;20017;-71
2022/11/12 08:41:08;;;;;;;17.25;11.63;;;;;;;-143.48;80.11;80618.72;5032588;28;20438;-70
2022/11/12 08:43:34;;;;;;;17.45;11.98;;;;;;;-143.48;79.70;80598.88;5033609;28;20528;-71
2022/11/12 08:46:01;;;;;;;15.90;10.60;;;;;;;-143.48;79.38;80588.97;5035426;28;20068;-70
2022/11/12 08:48:27;;;;;;;18.05;10.77;;;;;;;-143.48;78.31;80583.00;5033903;28;20030;-70
2022/11/12 08:50:53;;;;;;;17.88;10.80;;;;;;;-143.48;78.57;80579.03;5032123;28;20526;-71
2022/11/12 08:53:21;;;;;;;18.15;11.52;;;;;;;-143.48;78.27;80585.00;5032144;28;20033;-70
2022/11/12 08:55:46;;;;;;;16.27;10.82;;;;;;;-143.48;78.06;80577.06;5034010;28;20040;-71
2022/11/12 08:58:12;;;;;;;19.27;11.00;;;;;;;-143.48;77.69;80559.19;5034218;28;20029;-71
2022/11/12 09:00:40;;;;;;;17.45;10.57;;;;;;;-143.48;77.29;80555.22;5031753;28;20056;-73
2022/11/12 09:03:07;;;;;;;15.00;10.20;;;;;;;-143.48;76.75;80533.41;5031990;28;20053;-72
2022/11/12 09:05:35;;;;;;;16.15;10.50;;;;;;;-143.48;76.42;80523.47;5033060;28;20313;-71
2022/11/12 09:08:05;;;;;;;18.98;10.40;;;;;;;-143.48;76.61;80521.50;5033252;28;20033;-71
2022/11/12 09:10:31;;;;;;;15.65;10.10;;;;;;;-143.48;76.35;80507.59;5031817;28;20067;-71
2022/11/12 09:12:56;;;;;;;16.63;9.85;;;;;;;-143.48;76.34;80479.81;5033383;28;20034;-70
2022/11/12 09:15:23;;;;;;;20.08;10.93;;;;;;;-143.48;75.32;80483.78;5033443;28;20017;-71
2022/11/12 09:17:57;;;;;;;17.33;9.77;;;;;;;-143.48;75.18;80467.91;5037768;28;20114;-71
2022/11/12 09:20:23;;;;;;;16.25;10.20;;;;;;;-143.48;71.87;80329.03;5036475;28;20096;-71
2022/11/12 09:22:49;;;;;;;16.25;9.23;;;;;;;-143.48;59.70;79886.59;5034985;28;20558;-71
2022/11/12 09:25:15;;;;;;;14.13;8.60;;;;;;;-143.48;49.52;79533.44;5034833;28;20035;-71
2022/11/12 09:27:40;;;;;;;11.82;8.15;;;;;;;-143.48;47.27;79507.66;5033369;28;20494;-71
2022/11/12 09:30:06;;;;;;;12.98;8.25;;;;;;;-143.48;45.38;79384.66;5034535;28;20025;-71
2022/11/12 09:32:32;;;;;;;11.15;7.38;;;;;;;-143.48;43.09;79293.41;5033200;28;20035;-71
2022/11/12 09:34:57;;;;;;;11.40;8.02;;;;;;;-143.48;43.17;79337.06;5034718;28;20029;-71
2022/11/12 09:37:22;;;;;;;10.48;7.43;;;;;;;-143.48;43.16;79339.03;5035203;28;20021;-72
2022/11/12 09:39:47;;;;;;;10.30;7.38;;;;;;;-143.48;44.56;79337.06;5034561;28;20018;-72
2022/11/12 09:42:16;;;;;;;10.10;7.43;;;;;;;-143.48;44.99;79416.41;5034155;28;20484;-72
2022/11/12 09:44:45;;;;;;;11.95;7.10;;;;;;;-143.48;44.48;79386.66;5034274;28;20029;-73
2022/11/12 09:47:25;;;;;;;11.13;7.30;;;;;;;-143.48;44.45;79354.91;5034160;28;20025;-73
2022/11/12 09:50:20;;;;;;;12.82;7.00;;;;;;;-143.48;43.10;79345.00;5033103;28;20384;-71
2022/11/12 09:52:49;;;;;;;11.00;7.20;;;;;;;-143.48;44.10;79366.81;5034861;28;20141;-72
2022/11/12 09:55:35;;;;;;;9.82;6.80;;;;;;;-143.48;44.05;79374.75;5032892;28;20029;-72
2022/11/12 09:58:00;;;;;;;9.52;6.80;;;;;;;-143.48;45.69;79458.06;5035060;28;20032;-72
2022/11/12 10:00:25;;;;;;;11.38;6.43;;;;;;;-143.48;43.67;79291.44;5033765;28;20457;-71
2022/11/12 10:03:07;;;;;;;8.90;6.50;;;;;;;-143.48;41.93;79227.97;5034944;28;20423;-70
2022/11/12 10:05:38;;;;;;;10.47;6.30;;;;;;;-143.48;41.92;79184.31;5034959;28;20094;-71
2022/11/12 10:08:41;;;;;;;8.55;6.22;;;;;;;-143.48;40.84;79130.75;5034889;28;20048;-71
2022/11/12 10:12:30;;;;;;;10.63;6.43;;;;;;;-143.48;40.51;79156.53;5035192;28;20477;-74
2022/11/12 10:14:35;;;;;;;10.80;6.13;;;;;;;-143.48;39.83;79101.00;5034502;28;20038;-73
2022/11/12 10:17:14;;;;;;;10.60;5.80;;;;;;;-143.48;39.81;79089.09;5034384;28;20087;-72
2022/11/12 10:20:00;;;;;;;7.88;6.00;;;;;;;-143.48;39.29;79059.34;5032968;28;20380;-73
2022/11/12 10:22:33;;;;;;;7.20;5.55;;;;;;;-143.48;38.76;79027.63;5033818;28;20087;-73
2022/11/12 10:25:12;;;;;;;6.50;5.15;;;;;;;-143.48;38.65;79021.66;5033753;28;20029;-73
2022/11/12 10:27:39;;;;;;;8.82;5.60;;;;;;;-143.48;37.53;78930.41;5034304;28;20021;-74
2022/11/12 10:30:12;;;;;;;8.43;5.38;;;;;;;-143.48;36.94;78859.03;5033041;28;20026;-73
2022/11/12 10:32:43;;;;;;;8.73;5.53;;;;;;;-143.48;36.58;78825.31;5034319;28;20041;-73
2022/11/12 10:35:10;;;;;;;7.75;5.10;;;;;;;-143.48;36.46;78859.03;5034851;28;20139;-73
2022/11/12 10:38:01;;;;;;;9.05;5.45;;;;;;;-143.48;36.13;78785.63;5035362;28;20030;-72
2022/11/12 10:40:38;;;;;;;6.88;4.88;;;;;;;-143.48;36.42;78884.81;5032746;28;20049;-71
2022/11/12 10:43:15;;;;;;;8.00;4.95;;;;;;;-143.48;36.18;78819.34;5035663;28;20080;-72
2022/11/12 10:45:46;;;;;;;8.35;5.03;;;;;;;-143.48;36.76;78902.66;5033831;28;20026;-73
2022/11/12 10:48:31;;;;;;;7.23;5.17;;;;;;;-143.48;35.99;78817.38;5033309;28;20048;-71
2022/11/12 10:50:57;;;;;;;6.40;4.70;;;;;;;-143.48;35.68;78793.56;5032940;28;20318;-71
2022/11/12 10:53:38;;;;;;;6.75;4.65;;;;;;;-143.48;36.78;78910.59;5034235;28;20033;-72
2022/11/12 10:56:22;;;;;;;6.88;4.72;;;;;;;-143.48;37.94;79003.81;5032578;28;20017;-73
2022/11/12 10:59:09;;;;;;;7.93;4.80;;;;;;;-143.48;38.40;78993.91;5032449;28;20026;-72
2022/11/12 11:01:35;;;;;;;8.52;4.93;;;;;;;-143.48;35.46;78745.97;5032656;28;20072;-72
2022/11/12 11:04:01;;;;;;;8.45;4.60;;;;;;;-143.48;36.05;78749.94;5033938;28;20056;-72
2022/11/12 11:06:26;;;;;;;8.70;4.00;;;;;;;-143.48;35.64;78809.44;5037470;28;20100;-73
2022/11/12 11:09:12;;;;;;;6.82;4.00;;;;;;;-143.48;34.78;78753.91;5037429;28;20023;-72
2022/11/12 11:11:47;;;;;;;6.72;4.40;;;;;;;-143.48;34.72;78722.16;5030371;28;20101;-72
2022/11/12 11:14:21;;;;;;;6.18;3.88;;;;;;;-143.48;33.79;78583.31;5038767;28;20447;-72
2022/11/12 11:17:00;;;;;;;6.40;4.22;;;;;;;-143.48;35.15;78773.72;5038039;28;20036;-72
2022/11/12 11:19:32;;;;;;;5.68;3.88;;;;;;;-143.48;34.92;78730.09;5037961;28;20075;-72
2022/11/12 11:22:28;;;;;;;8.35;4.20;;;;;;;-143.48;33.43;78680.50;5036565;28;20032;-73
2022/11/12 11:25:22;;;;;;;6.55;3.50;;;;;;;-143.48;33.27;78636.88;5033724;28;20546;-73
2022/11/12 11:28:07;;;;;;;7.15;3.80;;;;;;;-143.48;34.84;78837.19;5037125;28;20029;-74
2022/11/12 11:30:37;;;;;;;6.57;3.83;;;;;;;-143.48;34.36;78722.16;5039073;28;20018;-72
2022/11/12 11:33:19;;;;;;;6.90;3.40;;;;;;;-143.48;33.40;78624.97;5037776;28;20033;-72
2022/11/12 11:36:05;;;;;;;6.97;3.42;;;;;;;-143.48;32.66;78593.25;5036729;28;20075;-73